sensor_id;sensor_type;location;lat;lon;timestamp;pressure;altitude;pressure_sealevel;temperature;humidity
68634;BME280;55625;47.072;22.192;2023-05-23T00:00:57;99468.66;;;12.92;100.00
68634;BME280;55625;47.072;22.192;2023-05-23T00:03:24;99476.88;;;12.99;100.00
68634;BME280;55625;47.072;22.192;2023-05-23T00:05:50;99466.13;;;12.94;100.00
68634;BME280;55625;47.072;22.192;2023-05-23T00:08:17;99469.13;;;13.00;100.00
68634;BME280;55625;47.072;22.192;2023-05-23T00:10:44;99470.38;;;12.99;100.00
68634;BME280;55625;47.072;22.192;2023-05-23T00:13:10;99471.31;;;13.05;100.00
68634;BME280;55625;47.072;22.192;2023-05-23T00:15:40;99468.16;;;13.03;100.00
68634;BME280;55625;47.072;22.192;2023-05-23T00:18:07;99468.81;;;12.89;100.00
68634;BME280;55625;47.072;22.192;2023-05-23T00:20:43;99469.63;;;12.89;100.00
68634;BME280;55625;47.072;22.192;2023-05-23T00:23:10;99469.75;;;12.95;100.00
68634;BME280;55625;47.072;22.192;2023-05-23T00:25:46;99472.28;;;12.84;100.00
68634;BME280;55625;47.072;22.192;2023-05-23T00:28:17;99462.81;;;12.78;100.00
68634;BME280;55625;47.072;22.192;2023-05-23T00:30:43;99463.13;;;12.80;100.00
68634;BME280;55625;47.072;22.192;2023-05-23T00:33:09;99464.69;;;12.81;100.00
68634;BME280;55625;47.072;22.192;2023-05-23T00:35:35;99472.28;;;12.74;100.00
68634;BME280;55625;47.072;22.192;2023-05-23T00:38:00;99471.19;;;12.72;100.00
68634;BME280;55625;47.072;22.192;2023-05-23T00:40:26;99473.25;;;12.71;100.00
68634;BME280;55625;47.072;22.192;2023-05-23T00:42:52;99473.09;;;12.75;100.00
68634;BME280;55625;47.072;22.192;2023-05-23T00:45:18;99474.34;;;12.74;100.00
68634;BME280;55625;47.072;22.192;2023-05-23T00:47:46;99470.41;;;12.71;100.00
68634;BME280;55625;47.072;22.192;2023-05-23T00:50:13;99480.69;;;12.78;100.00
68634;BME280;55625;47.072;22.192;2023-05-23T00:52:41;99475.78;;;12.69;100.00
68634;BME280;55625;47.072;22.192;2023-05-23T00:55:08;99482.13;;;12.64;100.00
68634;BME280;55625;47.072;22.192;2023-05-23T00:57:35;99480.22;;;12.70;100.00
68634;BME280;55625;47.072;22.192;2023-05-23T01:00:07;99481.31;;;12.64;100.00
68634;BME280;55625;47.072;22.192;2023-05-23T01:02:40;99477.06;;;12.59;100.00
68634;BME280;55625;47.072;22.192;2023-05-23T01:05:09;99474.69;;;12.58;100.00
68634;BME280;55625;47.072;22.192;2023-05-23T01:07:36;99472.63;;;12.58;100.00
68634;BME280;55625;47.072;22.192;2023-05-23T01:10:03;99475.75;;;12.51;100.00
68634;BME280;55625;47.072;22.192;2023-05-23T01:13:16;99479.56;;;12.48;100.00
68634;BME280;55625;47.072;22.192;2023-05-23T01:16:01;99474.03;;;12.44;100.00
68634;BME280;55625;47.072;22.192;2023-05-23T01:21:53;99471.00;;;12.39;100.00
68634;BME280;55625;47.072;22.192;2023-05-23T01:29:56;99477.97;;;12.38;100.00
68634;BME280;55625;47.072;22.192;2023-05-23T01:32:24;99480.81;;;12.38;100.00
68634;BME280;55625;47.072;22.192;2023-05-23T01:34:55;99477.03;;;12.41;100.00
68634;BME280;55625;47.072;22.192;2023-05-23T01:37:21;99482.09;;;12.46;100.00
68634;BME280;55625;47.072;22.192;2023-05-23T01:39:46;99477.97;;;12.47;100.00
68634;BME280;55625;47.072;22.192;2023-05-23T01:42:13;99481.13;;;12.49;100.00
68634;BME280;55625;47.072;22.192;2023-05-23T01:44:40;99490.00;;;12.51;100.00
68634;BME280;55625;47.072;22.192;2023-05-23T01:47:07;99478.94;;;12.53;100.00
68634;BME280;55625;47.072;22.192;2023-05-23T01:49:36;99486.53;;;12.56;100.00
68634;BME280;55625;47.072;22.192;2023-05-23T01:52:04;99490.34;;;12.62;100.00
68634;BME280;55625;47.072;22.192;2023-05-23T01:54:34;99497.31;;;12.61;100.00
68634;BME280;55625;47.072;22.192;2023-05-23T01:57:02;99495.09;;;12.65;100.00
68634;BME280;55625;47.072;22.192;2023-05-23T01:59:29;99498.25;;;12.67;100.00
68634;BME280;55625;47.072;22.192;2023-05-23T02:01:55;99494.44;;;12.61;100.00
68634;BME280;55625;47.072;22.192;2023-05-23T02:04:21;99494.13;;;12.59;100.00
68634;BME280;55625;47.072;22.192;2023-05-23T02:06:47;99499.00;;;12.50;100.00
68634;BME280;55625;47.072;22.192;2023-05-23T02:09:13;99488.56;;;12.47;100.00
68634;BME280;55625;47.072;22.192;2023-05-23T02:11:39;99484.63;;;12.44;100.00
68634;BME280;55625;47.072;22.192;2023-05-23T02:14:05;99482.41;;;12.39;100.00
68634;BME280;55625;47.072;22.192;2023-05-23T02:16:31;99483.50;;;12.32;100.00
68634;BME280;55625;47.072;22.192;2023-05-23T02:18:58;99461.84;;;12.26;100.00
68634;BME280;55625;47.072;22.192;2023-05-23T02:21:24;99475.09;;;12.20;100.00
68634;BME280;55625;47.072;22.192;2023-05-23T02:23:50;99467.97;;;12.15;100.00
68634;BME280;55625;47.072;22.192;2023-05-23T02:26:15;99462.44;;;12.11;100.00
68634;BME280;55625;47.072;22.192;2023-05-23T02:28:42;99465.72;;;12.01;100.00
68634;BME280;55625;47.072;22.192;2023-05-23T02:31:08;99463.81;;;11.98;100.00
68634;BME280;55625;47.072;22.192;2023-05-23T02:33:34;99462.09;;;12.00;100.00
68634;BME280;55625;47.072;22.192;2023-05-23T02:36:00;99466.81;;;11.94;100.00
68634;BME280;55625;47.072;22.192;2023-05-23T02:38:26;99462.38;;;11.93;100.00
68634;BME280;55625;47.072;22.192;2023-05-23T02:40:52;99465.56;;;11.95;100.00
68634;BME280;55625;47.072;22.192;2023-05-23T02:43:21;99462.41;;;12.02;100.00
68634;BME280;55625;47.072;22.192;2023-05-23T02:45:47;99459.72;;;11.99;100.00
68634;BME280;55625;47.072;22.192;2023-05-23T02:48:13;99460.78;;;11.92;100.00
68634;BME280;55625;47.072;22.192;2023-05-23T02:50:38;99457.81;;;11.96;100.00
68634;BME280;55625;47.072;22.192;2023-05-23T02:53:04;99453.84;;;11.93;100.00
68634;BME280;55625;47.072;22.192;2023-05-23T02:55:30;99462.88;;;12.01;100.00
68634;BME280;55625;47.072;22.192;2023-05-23T02:57:57;99457.19;;;12.01;100.00
68634;BME280;55625;47.072;22.192;2023-05-23T03:00:27;99455.94;;;12.02;100.00
68634;BME280;55625;47.072;22.192;2023-05-23T03:02:52;99453.41;;;12.04;100.00
68634;BME280;55625;47.072;22.192;2023-05-23T03:05:18;99458.31;;;12.03;100.00
68634;BME280;55625;47.072;22.192;2023-05-23T03:07:44;99461.16;;;12.03;100.00
68634;BME280;55625;47.072;22.192;2023-05-23T03:10:10;99450.88;;;12.06;100.00
68634;BME280;55625;47.072;22.192;2023-05-23T03:12:36;99458.00;;;12.10;100.00
68634;BME280;55625;47.072;22.192;2023-05-23T03:15:02;99457.06;;;12.13;100.00
68634;BME280;55625;47.072;22.192;2023-05-23T03:17:28;99457.38;;;12.16;100.00
68634;BME280;55625;47.072;22.192;2023-05-23T03:19:54;99458.97;;;12.17;100.00
68634;BME280;55625;47.072;22.192;2023-05-23T03:22:20;99457.53;;;12.12;100.00
68634;BME280;55625;47.072;22.192;2023-05-23T03:24:46;99450.41;;;12.17;100.00
68634;BME280;55625;47.072;22.192;2023-05-23T03:27:12;99454.84;;;12.18;100.00
68634;BME280;55625;47.072;22.192;2023-05-23T03:29:38;99454.41;;;12.28;100.00
68634;BME280;55625;47.072;22.192;2023-05-23T03:32:04;99453.94;;;12.30;100.00
68634;BME280;55625;47.072;22.192;2023-05-23T03:34:31;99454.25;;;12.32;100.00
68634;BME280;55625;47.072;22.192;2023-05-23T03:36:58;99452.34;;;12.38;100.00
68634;BME280;55625;47.072;22.192;2023-05-23T03:39:24;99450.78;;;12.37;100.00
68634;BME280;55625;47.072;22.192;2023-05-23T03:41:50;99449.50;;;12.47;100.00
68634;BME280;55625;47.072;22.192;2023-05-23T03:44:16;99449.19;;;12.54;100.00
68634;BME280;55625;47.072;22.192;2023-05-23T03:46:42;99451.91;;;12.58;100.00
68634;BME280;55625;47.072;22.192;2023-05-23T03:49:08;99450.00;;;12.73;100.00
68634;BME280;55625;47.072;22.192;2023-05-23T03:51:33;99444.94;;;12.77;99.04
68634;BME280;55625;47.072;22.192;2023-05-23T03:53:59;99447.47;;;12.93;98.96
68634;BME280;55625;47.072;22.192;2023-05-23T03:56:25;99449.81;;;12.95;98.51
68634;BME280;55625;47.072;22.192;2023-05-23T03:58:51;99458.34;;;13.04;98.36
68634;BME280;55625;47.072;22.192;2023-05-23T04:01:17;99453.41;;;13.14;98.48
68634;BME280;55625;47.072;22.192;2023-05-23T04:03:43;99452.66;;;13.22;98.05
68634;BME280;55625;47.072;22.192;2023-05-23T04:06:08;99455.13;;;13.39;96.77
68634;BME280;55625;47.072;22.192;2023-05-23T04:08:34;99465.75;;;13.47;97.05
68634;BME280;55625;47.072;22.192;2023-05-23T04:11:01;99456.84;;;13.54;95.44
68634;BME280;55625;47.072;22.192;2023-05-23T04:13:27;99461.09;;;13.59;93.81
68634;BME280;55625;47.072;22.192;2023-05-23T04:15:55;99466.75;;;13.68;92.35
68634;BME280;55625;47.072;22.192;2023-05-23T04:18:21;99467.41;;;13.63;91.74
68634;BME280;55625;47.072;22.192;2023-05-23T04:20:48;99473.41;;;13.65;91.69
68634;BME280;55625;47.072;22.192;2023-05-23T04:23:14;99476.88;;;13.69;90.72
68634;BME280;55625;47.072;22.192;2023-05-23T04:25:40;99474.03;;;13.69;91.38
68634;BME280;55625;47.072;22.192;2023-05-23T04:28:06;99476.22;;;13.74;92.20
68634;BME280;55625;47.072;22.192;2023-05-23T04:30:35;99471.47;;;13.80;91.86
68634;BME280;55625;47.072;22.192;2023-05-23T04:33:00;99472.41;;;13.86;91.17
68634;BME280;55625;47.072;22.192;2023-05-23T04:35:26;99474.28;;;13.89;91.36
68634;BME280;55625;47.072;22.192;2023-05-23T04:37:58;99466.16;;;13.97;91.34
68634;BME280;55625;47.072;22.192;2023-05-23T04:40:24;99482.41;;;14.06;90.90
68634;BME280;55625;47.072;22.192;2023-05-23T04:42:50;99475.72;;;14.18;90.21
68634;BME280;55625;47.072;22.192;2023-05-23T04:45:17;99476.75;;;14.29;89.58
68634;BME280;55625;47.072;22.192;2023-05-23T04:47:47;99463.06;;;14.34;89.49
68634;BME280;55625;47.072;22.192;2023-05-23T04:50:13;99465.72;;;14.46;89.47
68634;BME280;55625;47.072;22.192;2023-05-23T04:52:43;99464.06;;;14.54;89.95
68634;BME280;55625;47.072;22.192;2023-05-23T04:55:09;99462.50;;;14.53;90.13
68634;BME280;55625;47.072;22.192;2023-05-23T04:57:35;99461.75;;;14.68;89.41
68634;BME280;55625;47.072;22.192;2023-05-23T05:00:00;99467.88;;;14.75;88.58
68634;BME280;55625;47.072;22.192;2023-05-23T05:02:29;99458.06;;;14.91;87.73
68634;BME280;55625;47.072;22.192;2023-05-23T05:04:59;99460.66;;;15.04;85.86
68634;BME280;55625;47.072;22.192;2023-05-23T05:07:25;99455.34;;;15.11;85.83
68634;BME280;55625;47.072;22.192;2023-05-23T05:09:51;99465.97;;;15.26;85.61
68634;BME280;55625;47.072;22.192;2023-05-23T05:12:17;99463.91;;;15.41;84.50
68634;BME280;55625;47.072;22.192;2023-05-23T05:14:43;99468.47;;;15.62;85.57
68634;BME280;55625;47.072;22.192;2023-05-23T05:17:08;99469.13;;;15.87;84.26
68634;BME280;55625;47.072;22.192;2023-05-23T05:19:34;99469.66;;;16.05;82.07
68634;BME280;55625;47.072;22.192;2023-05-23T05:22:01;99468.25;;;16.15;81.25
68634;BME280;55625;47.072;22.192;2023-05-23T05:24:26;99467.50;;;16.35;83.05
68634;BME280;55625;47.072;22.192;2023-05-23T05:26:54;99466.91;;;16.52;80.87
68634;BME280;55625;47.072;22.192;2023-05-23T05:29:20;99465.38;;;16.71;80.05
68634;BME280;55625;47.072;22.192;2023-05-23T05:31:46;99468.75;;;16.90;78.75
68634;BME280;55625;47.072;22.192;2023-05-23T05:34:12;99465.25;;;17.06;78.80
68634;BME280;55625;47.072;22.192;2023-05-23T05:36:38;99468.53;;;17.19;77.23
68634;BME280;55625;47.072;22.192;2023-05-23T05:39:11;99473.41;;;17.39;77.38
68634;BME280;55625;47.072;22.192;2023-05-23T05:41:37;99466.59;;;17.62;76.34
68634;BME280;55625;47.072;22.192;2023-05-23T05:44:03;99468.28;;;17.75;75.44
68634;BME280;55625;47.072;22.192;2023-05-23T05:46:29;99463.44;;;17.86;76.23
68634;BME280;55625;47.072;22.192;2023-05-23T05:48:55;99477.34;;;17.99;74.87
68634;BME280;55625;47.072;22.192;2023-05-23T05:51:21;99471.47;;;18.14;74.29
68634;BME280;55625;47.072;22.192;2023-05-23T05:53:46;99466.34;;;18.35;73.52
68634;BME280;55625;47.072;22.192;2023-05-23T05:56:14;99467.00;;;18.55;73.42
68634;BME280;55625;47.072;22.192;2023-05-23T05:58:40;99473.66;;;18.78;73.13
68634;BME280;55625;47.072;22.192;2023-05-23T06:01:06;99470.31;;;18.97;72.37
68634;BME280;55625;47.072;22.192;2023-05-23T06:03:32;99468.81;;;19.23;73.31
68634;BME280;55625;47.072;22.192;2023-05-23T06:05:58;99478.53;;;19.37;71.53
68634;BME280;55625;47.072;22.192;2023-05-23T06:08:24;99471.25;;;19.59;71.90
68634;BME280;55625;47.072;22.192;2023-05-23T06:10:50;99480.69;;;19.81;70.67
68634;BME280;55625;47.072;22.192;2023-05-23T06:13:16;99470.75;;;19.99;70.56
68634;BME280;55625;47.072;22.192;2023-05-23T06:15:42;99474.91;;;20.21;70.85
68634;BME280;55625;47.072;22.192;2023-05-23T06:18:09;99481.94;;;20.42;68.71
68634;BME280;55625;47.072;22.192;2023-05-23T06:20:35;99478.81;;;20.51;67.38
68634;BME280;55625;47.072;22.192;2023-05-23T06:23:01;99471.94;;;20.60;68.86
68634;BME280;55625;47.072;22.192;2023-05-23T06:25:30;99474.72;;;20.88;69.49
68634;BME280;55625;47.072;22.192;2023-05-23T06:27:56;99475.91;;;21.15;68.93
68634;BME280;55625;47.072;22.192;2023-05-23T06:30:22;99481.34;;;21.29;67.76
68634;BME280;55625;47.072;22.192;2023-05-23T06:32:48;99481.00;;;21.44;65.64
68634;BME280;55625;47.072;22.192;2023-05-23T06:35:14;99477.53;;;21.51;65.58
68634;BME280;55625;47.072;22.192;2023-05-23T06:37:40;99474.31;;;21.60;65.49
68634;BME280;55625;47.072;22.192;2023-05-23T06:40:11;99481.38;;;21.65;64.82
68634;BME280;55625;47.072;22.192;2023-05-23T06:42:39;99485.22;;;21.73;67.15
68634;BME280;55625;47.072;22.192;2023-05-23T06:45:05;99477.47;;;21.92;65.49
68634;BME280;55625;47.072;22.192;2023-05-23T06:47:31;99475.31;;;21.98;64.74
68634;BME280;55625;47.072;22.192;2023-05-23T06:49:57;99476.88;;;22.05;64.42
68634;BME280;55625;47.072;22.192;2023-05-23T06:52:23;99471.81;;;22.11;64.15
68634;BME280;55625;47.072;22.192;2023-05-23T06:54:50;99480.06;;;22.26;64.33
68634;BME280;55625;47.072;22.192;2023-05-23T06:57:15;99480.94;;;22.45;64.79
68634;BME280;55625;47.072;22.192;2023-05-23T06:59:41;99476.75;;;22.65;64.24
68634;BME280;55625;47.072;22.192;2023-05-23T07:02:07;99471.59;;;22.82;64.02
68634;BME280;55625;47.072;22.192;2023-05-23T07:04:33;99469.94;;;22.87;62.20
68634;BME280;55625;47.072;22.192;2023-05-23T07:06:59;99474.75;;;23.03;63.60
68634;BME280;55625;47.072;22.192;2023-05-23T07:09:24;99465.03;;;23.19;63.49
68634;BME280;55625;47.072;22.192;2023-05-23T07:11:50;99463.09;;;23.28;62.80
68634;BME280;55625;47.072;22.192;2023-05-23T07:14:16;99464.44;;;23.27;63.78
68634;BME280;55625;47.072;22.192;2023-05-23T07:16:42;99456.91;;;23.37;61.91
68634;BME280;55625;47.072;22.192;2023-05-23T07:19:08;99459.38;;;23.46;61.91
68634;BME280;55625;47.072;22.192;2023-05-23T07:21:34;99455.16;;;23.66;62.52
68634;BME280;55625;47.072;22.192;2023-05-23T07:24:00;99449.94;;;23.77;60.68
68634;BME280;55625;47.072;22.192;2023-05-23T07:26:26;99459.72;;;23.93;58.31
68634;BME280;55625;47.072;22.192;2023-05-23T07:28:52;99451.72;;;24.12;60.29
68634;BME280;55625;47.072;22.192;2023-05-23T07:31:18;99462.72;;;24.33;58.61
68634;BME280;55625;47.072;22.192;2023-05-23T07:33:44;99468.84;;;24.42;58.77
68634;BME280;55625;47.072;22.192;2023-05-23T07:36:10;99457.47;;;24.44;56.58
68634;BME280;55625;47.072;22.192;2023-05-23T07:38:36;99461.94;;;24.45;56.91
68634;BME280;55625;47.072;22.192;2023-05-23T07:41:02;99452.34;;;24.64;58.82
68634;BME280;55625;47.072;22.192;2023-05-23T07:43:27;99462.84;;;24.80;57.28
68634;BME280;55625;47.072;22.192;2023-05-23T07:45:53;99467.06;;;24.79;55.19
68634;BME280;55625;47.072;22.192;2023-05-23T07:48:19;99461.03;;;24.77;55.06
68634;BME280;55625;47.072;22.192;2023-05-23T07:50:45;99462.81;;;24.93;56.04
68634;BME280;55625;47.072;22.192;2023-05-23T07:53:11;99453.44;;;25.14;55.68
68634;BME280;55625;47.072;22.192;2023-05-23T07:55:36;99463.66;;;25.28;54.50
68634;BME280;55625;47.072;22.192;2023-05-23T07:58:02;99465.75;;;25.41;54.55
68634;BME280;55625;47.072;22.192;2023-05-23T08:00:28;99459.81;;;25.46;54.00
68634;BME280;55625;47.072;22.192;2023-05-23T08:02:54;99455.94;;;25.64;52.71
68634;BME280;55625;47.072;22.192;2023-05-23T08:05:20;99450.31;;;25.80;54.25
68634;BME280;55625;47.072;22.192;2023-05-23T08:07:47;99455.19;;;25.85;54.24
68634;BME280;55625;47.072;22.192;2023-05-23T08:10:13;99456.75;;;25.86;51.19
68634;BME280;55625;47.072;22.192;2023-05-23T08:12:38;99452.50;;;25.87;49.01
68634;BME280;55625;47.072;22.192;2023-05-23T08:15:05;99447.81;;;25.84;49.93
68634;BME280;55625;47.072;22.192;2023-05-23T08:17:31;99451.31;;;26.03;52.38
68634;BME280;55625;47.072;22.192;2023-05-23T08:19:57;99457.03;;;26.16;52.45
68634;BME280;55625;47.072;22.192;2023-05-23T08:22:25;99454.59;;;26.28;51.12
68634;BME280;55625;47.072;22.192;2023-05-23T08:24:50;99451.47;;;26.26;49.70
68634;BME280;55625;47.072;22.192;2023-05-23T08:27:16;99454.50;;;26.34;49.23
68634;BME280;55625;47.072;22.192;2023-05-23T08:29:42;99451.06;;;26.43;50.56
68634;BME280;55625;47.072;22.192;2023-05-23T08:32:08;99450.53;;;26.52;48.97
68634;BME280;55625;47.072;22.192;2023-05-23T08:34:34;99449.72;;;26.80;48.93
68634;BME280;55625;47.072;22.192;2023-05-23T08:37:01;99452.56;;;26.65;47.65
68634;BME280;55625;47.072;22.192;2023-05-23T08:39:27;99451.31;;;26.52;49.92
68634;BME280;55625;47.072;22.192;2023-05-23T08:41:53;99449.91;;;26.46;47.24
68634;BME280;55625;47.072;22.192;2023-05-23T08:44:19;99455.53;;;26.44;47.90
68634;BME280;55625;47.072;22.192;2023-05-23T08:46:46;99455.03;;;26.60;49.19
68634;BME280;55625;47.072;22.192;2023-05-23T08:49:16;99453.19;;;26.71;49.06
68634;BME280;55625;47.072;22.192;2023-05-23T08:51:43;99451.00;;;26.64;48.15
68634;BME280;55625;47.072;22.192;2023-05-23T08:54:10;99460.03;;;26.81;49.18
68634;BME280;55625;47.072;22.192;2023-05-23T08:56:39;99450.50;;;26.80;48.74
68634;BME280;55625;47.072;22.192;2023-05-23T08:59:07;99435.81;;;26.93;50.81
68634;BME280;55625;47.072;22.192;2023-05-23T09:01:34;99439.25;;;27.20;47.40
68634;BME280;55625;47.072;22.192;2023-05-23T09:04:00;99440.00;;;27.06;46.79
68634;BME280;55625;47.072;22.192;2023-05-23T09:06:29;99441.25;;;27.33;50.32
68634;BME280;55625;47.072;22.192;2023-05-23T09:08:57;99443.25;;;27.53;47.22
68634;BME280;55625;47.072;22.192;2023-05-23T09:11:23;99447.16;;;27.56;46.93
68634;BME280;55625;47.072;22.192;2023-05-23T09:13:49;99443.13;;;27.67;47.05
68634;BME280;55625;47.072;22.192;2023-05-23T09:16:16;99443.66;;;27.58;46.72
68634;BME280;55625;47.072;22.192;2023-05-23T09:18:45;99454.41;;;27.78;45.44
68634;BME280;55625;47.072;22.192;2023-05-23T09:21:12;99440.94;;;27.60;47.44
68634;BME280;55625;47.072;22.192;2023-05-23T09:23:39;99446.81;;;27.67;45.46
68634;BME280;55625;47.072;22.192;2023-05-23T09:26:10;99440.75;;;27.58;44.82
68634;BME280;55625;47.072;22.192;2023-05-23T09:28:37;99446.03;;;27.74;45.81
68634;BME280;55625;47.072;22.192;2023-05-23T09:31:06;99438.47;;;28.09;46.21
68634;BME280;55625;47.072;22.192;2023-05-23T09:33:48;99432.84;;;28.11;43.25
68634;BME280;55625;47.072;22.192;2023-05-23T09:36:15;99435.94;;;28.13;43.75
68634;BME280;55625;47.072;22.192;2023-05-23T09:38:44;99430.91;;;28.22;43.20
68634;BME280;55625;47.072;22.192;2023-05-23T09:41:11;99427.41;;;28.31;44.08
68634;BME280;55625;47.072;22.192;2023-05-23T09:43:51;99436.00;;;28.29;43.97
68634;BME280;55625;47.072;22.192;2023-05-23T09:46:20;99430.53;;;28.33;43.41
68634;BME280;55625;47.072;22.192;2023-05-23T09:48:48;99433.47;;;28.25;45.85
68634;BME280;55625;47.072;22.192;2023-05-23T09:51:18;99430.50;;;28.10;44.71
68634;BME280;55625;47.072;22.192;2023-05-23T09:53:48;99422.34;;;28.31;46.36
68634;BME280;55625;47.072;22.192;2023-05-23T09:56:18;99421.56;;;28.38;43.90
68634;BME280;55625;47.072;22.192;2023-05-23T09:58:47;99415.31;;;28.57;44.70
68634;BME280;55625;47.072;22.192;2023-05-23T10:01:13;99415.69;;;28.61;43.58
68634;BME280;55625;47.072;22.192;2023-05-23T10:03:51;99416.91;;;28.28;45.56
68634;BME280;55625;47.072;22.192;2023-05-23T10:06:41;99412.41;;;28.42;46.44
68634;BME280;55625;47.072;22.192;2023-05-23T10:09:12;99402.84;;;28.57;45.22
68634;BME280;55625;47.072;22.192;2023-05-23T10:15:04;99394.72;;;28.48;45.49
68634;BME280;55625;47.072;22.192;2023-05-23T10:20:32;99399.97;;;28.49;44.87
68634;BME280;55625;47.072;22.192;2023-05-23T10:23:01;99390.78;;;28.45;44.00
68634;BME280;55625;47.072;22.192;2023-05-23T10:25:28;99384.53;;;28.64;44.85
68634;BME280;55625;47.072;22.192;2023-05-23T10:27:58;99377.88;;;28.86;43.52
68634;BME280;55625;47.072;22.192;2023-05-23T10:30:25;99380.88;;;29.11;42.78
68634;BME280;55625;47.072;22.192;2023-05-23T10:32:52;99380.94;;;28.96;43.26
68634;BME280;55625;47.072;22.192;2023-05-23T10:35:40;99380.34;;;28.97;42.40
68634;BME280;55625;47.072;22.192;2023-05-23T10:38:43;99381.75;;;28.81;41.39
68634;BME280;55625;47.072;22.192;2023-05-23T10:41:32;99372.03;;;28.79;42.04
68634;BME280;55625;47.072;22.192;2023-05-23T10:44:15;99365.84;;;29.15;41.34
68634;BME280;55625;47.072;22.192;2023-05-23T10:46:59;99362.63;;;28.95;40.71
68634;BME280;55625;47.072;22.192;2023-05-23T10:49:41;99364.63;;;28.85;40.80
68634;BME280;55625;47.072;22.192;2023-05-23T10:52:09;99361.47;;;28.91;42.09
68634;BME280;55625;47.072;22.192;2023-05-23T10:54:50;99365.31;;;29.01;40.82
68634;BME280;55625;47.072;22.192;2023-05-23T10:57:23;99371.63;;;29.22;41.64
68634;BME280;55625;47.072;22.192;2023-05-23T10:59:51;99366.81;;;29.17;38.32
68634;BME280;55625;47.072;22.192;2023-05-23T11:02:25;99363.13;;;28.61;38.02
68634;BME280;55625;47.072;22.192;2023-05-23T11:05:22;99365.31;;;28.38;40.54
68634;BME280;55625;47.072;22.192;2023-05-23T11:08:09;99355.56;;;28.43;41.65
68634;BME280;55625;47.072;22.192;2023-05-23T11:10:55;99350.25;;;28.64;41.19
68634;BME280;55625;47.072;22.192;2023-05-23T11:13:23;99357.25;;;28.69;41.42
68634;BME280;55625;47.072;22.192;2023-05-23T11:15:49;99352.91;;;28.93;41.97
68634;BME280;55625;47.072;22.192;2023-05-23T11:18:26;99348.66;;;28.79;43.07
68634;BME280;55625;47.072;22.192;2023-05-23T11:20:53;99349.81;;;28.75;44.22
68634;BME280;55625;47.072;22.192;2023-05-23T11:23:19;99338.88;;;28.84;43.79
68634;BME280;55625;47.072;22.192;2023-05-23T11:25:52;99345.88;;;28.96;40.48
68634;BME280;55625;47.072;22.192;2023-05-23T11:28:20;99338.91;;;28.76;43.16
68634;BME280;55625;47.072;22.192;2023-05-23T11:30:49;99342.47;;;28.67;40.61
68634;BME280;55625;47.072;22.192;2023-05-23T11:33:16;99344.78;;;28.68;40.72
68634;BME280;55625;47.072;22.192;2023-05-23T11:35:47;99340.97;;;28.51;40.92
68634;BME280;55625;47.072;22.192;2023-05-23T11:38:15;99335.19;;;28.28;40.74
68634;BME280;55625;47.072;22.192;2023-05-23T11:40:44;99333.22;;;28.30;42.50
68634;BME280;55625;47.072;22.192;2023-05-23T11:43:15;99330.50;;;28.32;41.18
68634;BME280;55625;47.072;22.192;2023-05-23T11:45:42;99337.09;;;28.48;42.65
68634;BME280;55625;47.072;22.192;2023-05-23T11:48:13;99321.38;;;28.76;40.19
68634;BME280;55625;47.072;22.192;2023-05-23T11:50:52;99329.53;;;28.93;41.07
68634;BME280;55625;47.072;22.192;2023-05-23T11:53:21;99322.56;;;28.81;38.26
68634;BME280;55625;47.072;22.192;2023-05-23T11:55:56;99322.41;;;28.63;38.98
68634;BME280;55625;47.072;22.192;2023-05-23T11:58:32;99328.13;;;28.46;37.50
68634;BME280;55625;47.072;22.192;2023-05-23T12:01:10;99326.22;;;28.33;37.69
68634;BME280;55625;47.072;22.192;2023-05-23T12:03:47;99324.09;;;28.11;38.91
68634;BME280;55625;47.072;22.192;2023-05-23T12:06:15;99325.25;;;28.15;37.77
68634;BME280;55625;47.072;22.192;2023-05-23T12:08:41;99321.19;;;28.19;37.13
68634;BME280;55625;47.072;22.192;2023-05-23T12:11:07;99326.03;;;28.31;38.97
68634;BME280;55625;47.072;22.192;2023-05-23T12:13:33;99319.94;;;28.44;37.53
68634;BME280;55625;47.072;22.192;2023-05-23T12:16:00;99318.69;;;28.70;38.64
68634;BME280;55625;47.072;22.192;2023-05-23T12:18:31;99312.03;;;28.77;38.74
68634;BME280;55625;47.072;22.192;2023-05-23T12:21:04;99310.91;;;28.65;35.10
68634;BME280;55625;47.072;22.192;2023-05-23T12:23:33;99312.66;;;28.68;35.97
68634;BME280;55625;47.072;22.192;2023-05-23T12:26:04;99313.09;;;28.57;35.90
68634;BME280;55625;47.072;22.192;2023-05-23T12:28:41;99316.41;;;28.61;36.43
68634;BME280;55625;47.072;22.192;2023-05-23T12:31:20;99314.22;;;27.61;39.07
68634;BME280;55625;47.072;22.192;2023-05-23T12:33:51;99311.13;;;27.89;40.04
68634;BME280;55625;47.072;22.192;2023-05-23T12:36:25;99300.19;;;27.36;42.15
68634;BME280;55625;47.072;22.192;2023-05-23T12:38:52;99315.41;;;26.83;40.90
68634;BME280;55625;47.072;22.192;2023-05-23T12:41:19;99312.22;;;26.30;43.37
68634;BME280;55625;47.072;22.192;2023-05-23T12:43:54;99315.94;;;26.67;41.32
68634;BME280;55625;47.072;22.192;2023-05-23T12:46:25;99322.47;;;26.52;40.56
68634;BME280;55625;47.072;22.192;2023-05-23T12:48:52;99311.41;;;26.22;42.09
68634;BME280;55625;47.072;22.192;2023-05-23T12:51:18;99321.53;;;26.00;43.07
68634;BME280;55625;47.072;22.192;2023-05-23T12:53:44;99324.00;;;25.88;43.72
68634;BME280;55625;47.072;22.192;2023-05-23T12:56:10;99318.91;;;25.81;42.36
68634;BME280;55625;47.072;22.192;2023-05-23T12:58:36;99305.13;;;25.61;42.86
68634;BME280;55625;47.072;22.192;2023-05-23T13:01:02;99307.47;;;25.83;43.17
68634;BME280;55625;47.072;22.192;2023-05-23T13:03:29;99311.88;;;25.35;44.40
68634;BME280;55625;47.072;22.192;2023-05-23T13:05:58;99315.22;;;25.39;46.45
68634;BME280;55625;47.072;22.192;2023-05-23T13:08:25;99310.47;;;25.70;47.69